createdAt,value
2023-02-02T00:01:22.357Z,98211.75
2023-02-02T00:03:50.899Z,98200.81
2023-02-02T00:06:21.841Z,98197.03
2023-02-02T00:08:48.644Z,98203.72
2023-02-02T00:11:15.732Z,98194.19
2023-02-02T00:13:42.513Z,98199.59
2023-02-02T00:16:27.406Z,98199.16
2023-02-02T00:18:56.354Z,98188.94
2023-02-02T00:21:23.303Z,98188.81
2023-02-02T00:23:49.959Z,98179.41
2023-02-02T00:26:16.929Z,98160.38
2023-02-02T00:28:43.545Z,98147.84
2023-02-02T00:31:10.499Z,98141.63
2023-02-02T00:33:38.024Z,98125.25
2023-02-02T00:36:04.817Z,98127.91
2023-02-02T00:38:32.068Z,98118.47
2023-02-02T00:40:58.715Z,98126.78
2023-02-02T00:43:25.177Z,98127.16
2023-02-02T00:45:52.010Z,98124.28
2023-02-02T00:48:18.564Z,98120.13
2023-02-02T00:50:45.547Z,98109.91
2023-02-02T00:53:12.422Z,98108.81
2023-02-02T00:55:38.923Z,98110.56
2023-02-02T00:58:05.404Z,98101.44
2023-02-02T01:00:31.942Z,98094.28
2023-02-02T01:03:04.259Z,98102.66
2023-02-02T01:05:31.690Z,98016.97
2023-02-02T01:07:58.165Z,97879.09
2023-02-02T01:10:24.614Z,97754.78
2023-02-02T01:12:51.107Z,97625.97
2023-02-02T01:15:17.699Z,97388.72
2023-02-02T01:17:44.275Z,97315.78
2023-02-02T01:20:17.004Z,97288.53
2023-02-02T01:22:43.475Z,97272.28
2023-02-02T01:25:10.017Z,97261.88
2023-02-02T01:27:36.498Z,97227.91
2023-02-02T01:30:03.491Z,97201.47
2023-02-02T01:32:30.021Z,97179.09
2023-02-02T01:34:56.495Z,97165.13
2023-02-02T01:37:22.972Z,97162.25
2023-02-02T01:39:49.627Z,97155.97
2023-02-02T01:42:20.798Z,97136.84
2023-02-02T01:45:15.992Z,97120.97
2023-02-02T01:48:02.739Z,97095.41
2023-02-02T01:50:32.174Z,97087.91
2023-02-02T01:53:00.736Z,97061.88
2023-02-02T01:55:29.572Z,97057.22
2023-02-02T01:58:18.557Z,97043.53
2023-02-02T02:00:47.030Z,97027.28
2023-02-02T02:03:17.089Z,97014.50
2023-02-02T02:06:01.965Z,97008.25
2023-02-02T02:08:33.293Z,96973.75
2023-02-02T02:10:59.756Z,96948.66
2023-02-02T02:13:47.772Z,96935.63
2023-02-02T02:16:29.454Z,96926.84
2023-02-02T02:20:02.881Z,96916.06
2023-02-02T02:23:20.594Z,96912.19
2023-02-02T02:26:08.517Z,96885.88
2023-02-02T02:29:09.995Z,96863.38
2023-02-02T02:32:28.483Z,96824.94
2023-02-02T02:35:03.169Z,96818.13
2023-02-02T02:37:52.838Z,96798.50
2023-02-02T02:40:36.605Z,96779.19
2023-02-02T02:43:08.923Z,96765.97
2023-02-02T02:45:35.995Z,96740.09
2023-02-02T02:48:03.374Z,96714.31
2023-02-02T02:50:29.897Z,96698.50
2023-02-02T02:53:06.499Z,96685.38
2023-02-02T02:56:14.824Z,96665.56
2023-02-02T02:59:03.663Z,96632.63
2023-02-02T03:01:36.803Z,96614.38
2023-02-02T03:04:22.629Z,96603.06
2023-02-02T03:06:54.821Z,96572.63
2023-02-02T03:09:29.914Z,96560.41
2023-02-02T03:11:56.444Z,96540.22
2023-02-02T03:14:22.917Z,96521.03
2023-02-02T03:16:51.611Z,96513.47
2023-02-02T03:19:18.441Z,96501.88
2023-02-02T03:21:44.940Z,96493.16
2023-02-02T03:24:11.747Z,96478.00
2023-02-02T03:26:38.291Z,96474.75
2023-02-02T03:29:04.774Z,96470.84
2023-02-02T03:31:31.374Z,96466.44
2023-02-02T03:33:58.117Z,96452.50
2023-02-02T03:36:24.616Z,96449.94
2023-02-02T03:38:51.054Z,96440.31
2023-02-02T03:41:17.533Z,96419.81
2023-02-02T03:43:44.037Z,96402.31
2023-02-02T03:46:10.814Z,96333.22
2023-02-02T03:48:38.167Z,96306.19
2023-02-02T03:51:08.968Z,96281.13
2023-02-02T03:53:35.621Z,96286.25
2023-02-02T03:56:02.039Z,96279.69
2023-02-02T03:58:28.492Z,96268.72
2023-02-02T04:00:59.852Z,96270.47
2023-02-02T04:03:26.337Z,96262.19
2023-02-02T04:05:52.775Z,96249.31
2023-02-02T04:08:19.272Z,96245.00
2023-02-02T04:10:45.726Z,96234.88
2023-02-02T04:13:12.778Z,96223.00
2023-02-02T04:15:39.336Z,96215.16
2023-02-02T04:18:05.893Z,96207.56
2023-02-02T04:20:32.346Z,96204.91
2023-02-02T04:22:58.961Z,96180.59
2023-02-02T04:25:25.922Z,96181.03
2023-02-02T04:27:52.584Z,96169.56
2023-02-02T04:30:20.018Z,96148.09
2023-02-02T04:32:46.923Z,96139.69
2023-02-02T04:35:13.391Z,96143.41
2023-02-02T04:37:39.923Z,96136.84
2023-02-02T04:40:06.993Z,96133.56
2023-02-02T04:42:34.990Z,96131.97
2023-02-02T04:45:01.540Z,96134.91
2023-02-02T04:47:27.988Z,96119.66
2023-02-02T04:49:54.445Z,96114.38
2023-02-02T04:52:20.918Z,96102.81
2023-02-02T04:54:47.429Z,96103.03
2023-02-02T04:57:13.936Z,96097.81
2023-02-02T04:59:42.346Z,96098.22
2023-02-02T05:02:09.243Z,96096.59
2023-02-02T05:04:35.774Z,96090.78
2023-02-02T05:07:02.277Z,96089.75
2023-02-02T05:09:28.736Z,96089.44
2023-02-02T05:11:55.185Z,96085.03
2023-02-02T05:14:21.697Z,96091.59
2023-02-02T05:16:49.932Z,96081.75
2023-02-02T05:19:16.961Z,96082.59
2023-02-02T05:21:44.908Z,96084.84
2023-02-02T05:24:12.825Z,96077.88
2023-02-02T05:26:39.369Z,96073.06
2023-02-02T05:29:06.816Z,96071.34
2023-02-02T05:31:33.439Z,96077.16
2023-02-02T05:33:59.948Z,96077.97
2023-02-02T05:36:26.640Z,96074.09
2023-02-02T05:38:53.071Z,96066.66
2023-02-02T05:41:19.622Z,96067.59
2023-02-02T05:43:46.082Z,96070.13
2023-02-02T05:46:13.168Z,96077.38
2023-02-02T05:48:39.628Z,96071.03
2023-02-02T05:51:28.177Z,96074.09
2023-02-02T05:53:54.958Z,96072.38
2023-02-02T05:56:21.431Z,96061.94
2023-02-02T05:58:49.759Z,96068.81
2023-02-02T06:01:17.562Z,96063.47
2023-02-02T06:03:44.222Z,96063.06
2023-02-02T06:06:10.728Z,96061.53
2023-02-02T06:08:37.303Z,96064.59
2023-02-02T06:11:14.565Z,96072.16
2023-02-02T06:13:41.131Z,96061.16
2023-02-02T06:16:07.894Z,96058.16
2023-02-02T06:18:35.623Z,96060.22
2023-02-02T06:21:04.057Z,96064.28
2023-02-02T06:23:30.527Z,96051.81
2023-02-02T06:25:57.053Z,96049.19
2023-02-02T06:28:23.594Z,96048.06
2023-02-02T06:30:50.186Z,96052.75
2023-02-02T06:33:16.875Z,96057.53
2023-02-02T06:35:43.334Z,96046.09
2023-02-02T06:38:11.294Z,96046.59
2023-02-02T06:40:38.139Z,96050.19
2023-02-02T06:43:04.717Z,96038.94
2023-02-02T06:45:31.571Z,96054.25
2023-02-02T06:48:03.596Z,96047.63
2023-02-02T06:50:30.478Z,96043.03
2023-02-02T06:52:57.022Z,96042.22
2023-02-02T06:55:23.885Z,96046.84
2023-02-02T06:57:56.402Z,96030.50
2023-02-02T07:00:23.093Z,96036.81
2023-02-02T07:02:49.643Z,96027.72
2023-02-02T07:05:16.311Z,96029.28
2023-02-02T07:07:42.807Z,96024.84
2023-02-02T07:10:09.577Z,96032.19
2023-02-02T07:12:56.117Z,96032.03
2023-02-02T07:15:23.169Z,96035.06
2023-02-02T07:17:49.824Z,96032.44
2023-02-02T07:20:16.600Z,96029.06
2023-02-02T07:22:43.152Z,96024.75
2023-02-02T07:25:09.617Z,96020.59
2023-02-02T07:27:36.095Z,96021.09
2023-02-02T07:30:02.744Z,96017.09
2023-02-02T07:32:29.294Z,96017.50
2023-02-02T07:34:55.866Z,96017.31
2023-02-02T07:37:22.590Z,96019.03
2023-02-02T07:39:49.088Z,96021.47
2023-02-02T07:42:15.645Z,96024.44
2023-02-02T07:44:42.305Z,96030.38
2023-02-02T07:47:08.791Z,96029.56
2023-02-02T07:49:35.392Z,96034.38
2023-02-02T07:52:01.981Z,96031.91
2023-02-02T07:54:28.559Z,96028.25
2023-02-02T07:56:55.087Z,96033.34
2023-02-02T07:59:21.713Z,96031.41
2023-02-02T08:01:48.413Z,96034.78
2023-02-02T08:04:15.749Z,96036.22
2023-02-02T08:06:42.497Z,96036.94
2023-02-02T08:09:09.412Z,96043.25
2023-02-02T08:11:37.246Z,96031.59
2023-02-02T08:14:04.419Z,96035.69
2023-02-02T08:16:32.425Z,96029.47
2023-02-02T08:18:59.299Z,96035.47
2023-02-02T08:21:25.791Z,96034.69
2023-02-02T08:23:53.071Z,96032.22
2023-02-02T08:26:22.750Z,96038.75
2023-02-02T08:28:54.138Z,96038.84
2023-02-02T08:31:23.232Z,96040.81
2023-02-02T08:33:50.375Z,96041.81
2023-02-02T08:36:22.040Z,96037.31
2023-02-02T08:38:49.324Z,96041.41
2023-02-02T08:41:18.886Z,96046.31
2023-02-02T08:43:45.992Z,96045.78
2023-02-02T08:46:15.313Z,96051.41
2023-02-02T08:48:42.453Z,96050.19
2023-02-02T08:51:13.422Z,96047.16
2023-02-02T08:53:39.955Z,96043.75
2023-02-02T08:56:10.162Z,96047.84
2023-02-02T08:58:37.093Z,96044.78
2023-02-02T09:01:06.429Z,96056.63
2023-02-02T09:03:33.321Z,96052.03
2023-02-02T09:06:05.236Z,96052.94
2023-02-02T09:08:33.500Z,96045.69
2023-02-02T09:11:19.524Z,96053.47
2023-02-02T09:13:48.620Z,96046.13
2023-02-02T09:16:17.535Z,96050.28
2023-02-02T09:18:45.108Z,96048.69
2023-02-02T09:21:15.076Z,96055.72
2023-02-02T09:23:43.023Z,96058.56
2023-02-02T09:26:11.879Z,96059.19
2023-02-02T09:28:39.749Z,96071.44
2023-02-02T09:31:07.107Z,96073.88
2023-02-02T09:33:33.807Z,96064.72
2023-02-02T09:36:17.493Z,96072.75
2023-02-02T09:38:44.119Z,96074.72
2023-02-02T09:41:16.209Z,96075.09
2023-02-02T09:44:05.725Z,96081.44
2023-02-02T09:46:46.575Z,96089.19
2023-02-02T09:49:17.781Z,96084.56
2023-02-02T09:51:48.834Z,96087.53
2023-02-02T09:54:19.878Z,96093.47
2023-02-02T09:56:51.274Z,96093.34
2023-02-02T09:59:26.235Z,96097.94
2023-02-02T10:01:58.108Z,96099.56
2023-02-02T10:04:45.536Z,96110.63
2023-02-02T10:07:13.286Z,96107.56
2023-02-02T10:09:51.351Z,96117.41
2023-02-02T10:12:37.103Z,96119.66
2023-02-02T10:15:24.307Z,96119.91
2023-02-02T10:17:53.754Z,96125.00
2023-02-02T10:20:46.664Z,96130.50
2023-02-02T10:23:28.646Z,96138.88
2023-02-02T10:25:57.409Z,96134.19
2023-02-02T10:28:46.535Z,96132.56
2023-02-02T10:31:57.746Z,96137.78
2023-02-02T10:34:38.143Z,96135.59
2023-02-02T10:37:16.323Z,96140.94
2023-02-02T10:40:01.297Z,96149.09
2023-02-02T10:43:20.882Z,96150.34
2023-02-02T10:45:48.840Z,96155.97
2023-02-02T10:48:18.719Z,96163.44
2023-02-02T10:50:50.153Z,96167.31
2023-02-02T10:53:16.969Z,96179.78
2023-02-02T10:55:48.347Z,96179.78
2023-02-02T10:58:24.983Z,96190.22
2023-02-02T11:00:54.274Z,96192.56
2023-02-02T11:03:23.655Z,96193.72
2023-02-02T11:06:08.713Z,96193.56
2023-02-02T11:08:37.754Z,96190.56
2023-02-02T11:11:38.570Z,96202.75
2023-02-02T11:14:07.959Z,96206.84
2023-02-02T11:16:43.582Z,96210.72
2023-02-02T11:19:22.686Z,96211.00
2023-02-02T11:21:59.475Z,96215.38
2023-02-02T11:24:31.164Z,96218.97
2023-02-02T11:27:02.952Z,96217.78
2023-02-02T11:29:33.647Z,96217.41
2023-02-02T11:32:23.925Z,96215.88
2023-02-02T11:35:02.615Z,96226.50
2023-02-02T11:37:30.283Z,96229.69
2023-02-02T11:40:34.609Z,96228.66
2023-02-02T11:43:05.079Z,96237.06
2023-02-02T11:45:36.030Z,96232.22
2023-02-02T11:48:22.774Z,96243.81
2023-02-02T11:50:52.112Z,96243.28
2023-02-02T11:53:33.428Z,96245.22
2023-02-02T11:56:04.615Z,96247.66
2023-02-02T11:58:50.981Z,96250.44
2023-02-02T12:01:30.834Z,96256.50
2023-02-02T12:04:02.141Z,96257.38
2023-02-02T12:06:37.029Z,96264.56
2023-02-02T12:09:12.953Z,96266.09
2023-02-02T12:11:45.468Z,96265.06
2023-02-02T12:14:23.685Z,96270.69
2023-02-02T12:17:27.615Z,96279.19
2023-02-02T12:20:09.757Z,96272.84
2023-02-02T12:22:38.800Z,96281.00
2023-02-02T12:25:14.402Z,96288.56
2023-02-02T12:27:49.673Z,96284.28
2023-02-02T12:30:37.047Z,96290.19
2023-02-02T12:33:16.610Z,96301.13
2023-02-02T12:36:08.541Z,96312.84
2023-02-02T12:39:09.845Z,96310.19
2023-02-02T12:42:03.970Z,96315.28
2023-02-02T12:44:55.321Z,96322.81
2023-02-02T12:47:28.716Z,96331.00
2023-02-02T12:50:04.802Z,96333.91
2023-02-02T12:52:45.979Z,96349.22
2023-02-02T12:55:27.483Z,96340.63
2023-02-02T12:58:03.246Z,96346.75
2023-02-02T13:00:50.869Z,96359.66
2023-02-02T13:03:28.723Z,96370.25
2023-02-02T13:06:02.649Z,96369.84
2023-02-02T13:08:56.809Z,96378.22
2023-02-02T13:11:33.603Z,96386.19
2023-02-02T13:14:10.168Z,96398.09
2023-02-02T13:16:40.948Z,96409.06
2023-02-02T13:19:33.577Z,96408.31
2023-02-02T13:22:02.406Z,96400.97
2023-02-02T13:24:31.378Z,96402.72
2023-02-02T13:27:00.295Z,96408.19
2023-02-02T13:29:47.780Z,96421.03
2023-02-02T13:32:25.918Z,96426.44
2023-02-02T13:34:52.437Z,96439.56
2023-02-02T13:37:37.292Z,96440.94
2023-02-02T13:40:06.884Z,96451.75
2023-02-02T13:42:49.589Z,96461.78
2023-02-02T13:45:29.508Z,96463.16
2023-02-02T13:48:04.176Z,96467.97
2023-02-02T13:50:32.987Z,96470.31
2023-02-02T13:53:08.310Z,96473.22
2023-02-02T13:56:17.412Z,96462.59
2023-02-02T13:58:53.851Z,96480.84
2023-02-02T14:01:20.681Z,96480.69
2023-02-02T14:03:57.511Z,96479.72
2023-02-02T14:06:25.799Z,96484.22
2023-02-02T14:09:00.858Z,96490.13
2023-02-02T14:11:33.772Z,96501.44
2023-02-02T14:14:28.101Z,96505.81
2023-02-02T14:16:56.588Z,96504.31
2023-02-02T14:19:29.190Z,96504.19
2023-02-02T14:21:59.507Z,96509.75
2023-02-02T14:24:26.198Z,96515.28
2023-02-02T14:26:57.844Z,96523.56
2023-02-02T14:29:33.425Z,96529.69
2023-02-02T14:32:04.602Z,96537.16
2023-02-02T14:34:41.259Z,96543.38
2023-02-02T14:37:16.878Z,96545.66
2023-02-02T14:40:08.555Z,96555.34
2023-02-02T14:43:15.349Z,96553.97
2023-02-02T14:45:43.445Z,96567.28
2023-02-02T14:48:18.429Z,96574.69
2023-02-02T14:50:56.396Z,96579.81
2023-02-02T14:53:29.614Z,96590.94
2023-02-02T14:56:12.493Z,96594.59
2023-02-02T14:58:46.297Z,96605.47
2023-02-02T15:01:25.122Z,96612.88
2023-02-02T15:04:17.703Z,96618.88
2023-02-02T15:06:44.331Z,96624.81
2023-02-02T15:09:33.737Z,96628.28
2023-02-02T15:12:03.219Z,96640.66
2023-02-02T15:14:35.902Z,96647.03
2023-02-02T15:17:21.944Z,96653.22
2023-02-02T15:19:53.888Z,96669.03
2023-02-02T15:22:27.026Z,96693.03
2023-02-02T15:24:54.137Z,96689.63
2023-02-02T15:27:22.165Z,96690.28
2023-02-02T15:29:53.017Z,96710.28
2023-02-02T15:32:22.685Z,96696.69
2023-02-02T15:34:53.115Z,96704.03
2023-02-02T15:37:23.012Z,96711.00
2023-02-02T15:39:52.857Z,96714.84
2023-02-02T15:42:41.362Z,96721.34
2023-02-02T15:45:27.764Z,96728.00
2023-02-02T15:47:54.820Z,96724.59
2023-02-02T15:50:21.824Z,96729.81
2023-02-02T15:52:50.347Z,96739.41
2023-02-02T15:55:34.890Z,96740.88
2023-02-02T15:58:02.751Z,96752.41
2023-02-02T16:00:34.770Z,96765.72
2023-02-02T16:03:04.280Z,96765.88
2023-02-02T16:05:36.441Z,96775.16
2023-02-02T16:08:06.749Z,96779.22
2023-02-02T16:10:34.236Z,96787.16
2023-02-02T16:13:01.090Z,96799.91
2023-02-02T16:15:29.855Z,96807.50
2023-02-02T16:18:03.627Z,96816.53
2023-02-02T16:20:33.161Z,96817.38
2023-02-02T16:23:02.029Z,96823.81
2023-02-02T16:25:31.691Z,96825.34
2023-02-02T16:28:00.864Z,96828.25
2023-02-02T16:30:35.664Z,96833.06
2023-02-02T16:33:41.103Z,96832.38
2023-02-02T16:36:25.374Z,96837.75
2023-02-02T16:38:53.637Z,96847.16
2023-02-02T16:41:28.907Z,96861.97
2023-02-02T16:43:55.817Z,96859.22
2023-02-02T16:46:42.899Z,96862.16
2023-02-02T16:49:17.293Z,96868.28
2023-02-02T16:51:44.988Z,96875.19
2023-02-02T16:54:19.336Z,96880.22
2023-02-02T16:57:00.531Z,96885.38
2023-02-02T16:59:30.555Z,96892.88
2023-02-02T17:01:59.948Z,96889.59
2023-02-02T17:04:32.204Z,96898.81
2023-02-02T17:07:11.890Z,96896.03
2023-02-02T17:09:41.325Z,96906.81
2023-02-02T17:12:33.413Z,96906.75
2023-02-02T17:15:18.747Z,96920.78
2023-02-02T17:17:49.635Z,96918.25
2023-02-02T17:20:17.757Z,96930.06
2023-02-02T17:22:47.705Z,96929.78
2023-02-02T17:25:16.074Z,96945.84
2023-02-02T17:27:42.738Z,96955.50
2023-02-02T17:30:17.342Z,96951.81
2023-02-02T17:32:43.965Z,96957.69
2023-02-02T17:35:15.460Z,96966.31
2023-02-02T17:37:43.107Z,96969.06
2023-02-02T17:40:20.584Z,96973.56
2023-02-02T17:42:49.785Z,96974.69
2023-02-02T17:45:19.015Z,96970.88
2023-02-02T17:47:45.708Z,96983.72
2023-02-02T17:50:13.206Z,96991.56
2023-02-02T17:52:40.018Z,96993.97
2023-02-02T17:55:13.140Z,96996.94
2023-02-02T17:57:40.044Z,97005.34
2023-02-02T18:00:08.085Z,97011.97
2023-02-02T18:02:35.204Z,97010.16
2023-02-02T18:05:03.509Z,97021.88
2023-02-02T18:07:30.054Z,97016.66
2023-02-02T18:09:56.741Z,97030.69
2023-02-02T18:12:23.956Z,97035.66
2023-02-02T18:14:50.438Z,97038.34
2023-02-02T18:17:17.046Z,97040.97
2023-02-02T18:19:47.547Z,97044.63
2023-02-02T18:22:14.307Z,97051.25
2023-02-02T18:24:41.119Z,97057.03
2023-02-02T18:27:08.553Z,97062.25
2023-02-02T18:29:35.706Z,97054.69
2023-02-02T18:32:02.831Z,97063.44
2023-02-02T18:34:32.087Z,97069.66
2023-02-02T18:36:58.766Z,97078.25
2023-02-02T18:39:25.200Z,97083.63
2023-02-02T18:41:52.315Z,97092.28
2023-02-02T18:44:18.906Z,97089.19
2023-02-02T18:46:45.577Z,97096.63
2023-02-02T18:49:12.948Z,97100.84
2023-02-02T18:51:40.065Z,97107.88
2023-02-02T18:54:06.759Z,97101.13
2023-02-02T18:56:33.690Z,97113.03
2023-02-02T18:59:00.631Z,97118.94
2023-02-02T19:01:27.708Z,97114.47
2023-02-02T19:03:57.192Z,97107.19
2023-02-02T19:06:42.570Z,97125.03
2023-02-02T19:09:09.674Z,97133.69
2023-02-02T19:11:43.232Z,97136.13
2023-02-02T19:14:18.778Z,97143.97
2023-02-02T19:16:47.743Z,97154.84
2023-02-02T19:19:22.204Z,97162.13
2023-02-02T19:21:49.095Z,97163.81
2023-02-02T19:24:15.980Z,97169.78
2023-02-02T19:26:46.995Z,97180.28
2023-02-02T19:29:17.859Z,97184.47
2023-02-02T19:31:44.444Z,97190.13
2023-02-02T19:34:13.277Z,97194.16
2023-02-02T19:36:45.402Z,97200.19
2023-02-02T19:39:15.899Z,97197.44
2023-02-02T19:41:43.369Z,97211.09
2023-02-02T19:44:21.098Z,97217.28
2023-02-02T19:46:49.898Z,97205.22
2023-02-02T19:49:22.296Z,97219.03
2023-02-02T19:51:53.834Z,97218.63
2023-02-02T19:54:38.270Z,97226.34
2023-02-02T19:57:13.579Z,97228.94
2023-02-02T19:59:42.087Z,97233.16
2023-02-02T20:02:30.315Z,97239.41
2023-02-02T20:05:04.033Z,97241.88
2023-02-02T20:07:31.060Z,97254.56
2023-02-02T20:10:14.207Z,97260.94
2023-02-02T20:12:40.818Z,97270.53
2023-02-02T20:15:22.407Z,97282.25
2023-02-02T20:17:48.877Z,97285.38
2023-02-02T20:20:26.247Z,97284.50
2023-02-02T20:22:53.513Z,97289.78
2023-02-02T20:25:20.276Z,97287.53
2023-02-02T20:27:46.835Z,97290.06
2023-02-02T20:30:25.706Z,97295.94
2023-02-02T20:32:57.999Z,97308.16
2023-02-02T20:35:37.317Z,97317.84
2023-02-02T20:38:16.578Z,97316.97
2023-02-02T20:40:43.142Z,97311.94
2023-02-02T20:43:09.824Z,97306.84
2023-02-02T20:45:36.472Z,97310.88
2023-02-02T20:48:02.983Z,97316.38
2023-02-02T20:50:30.254Z,97324.78
2023-02-02T20:52:59.482Z,97318.25
2023-02-02T20:55:26.930Z,97328.91
2023-02-02T20:57:53.560Z,97329.72
2023-02-02T21:00:23.787Z,97340.75
2023-02-02T21:02:51.973Z,97337.50
2023-02-02T21:05:18.429Z,97334.66
2023-02-02T21:07:45.043Z,97343.53
2023-02-02T21:10:11.868Z,97346.94
2023-02-02T21:12:38.365Z,97355.13
2023-02-02T21:15:06.083Z,97356.13
2023-02-02T21:17:32.714Z,97357.81
2023-02-02T21:19:59.260Z,97360.44
2023-02-02T21:22:25.784Z,97371.84
2023-02-02T21:24:52.292Z,97373.50
2023-02-02T21:27:18.817Z,97380.69
2023-02-02T21:29:45.342Z,97385.47
2023-02-02T21:32:11.858Z,97388.00
2023-02-02T21:34:38.424Z,97390.31
2023-02-02T21:37:12.885Z,97394.16
2023-02-02T21:39:42.307Z,97388.16
2023-02-02T21:42:08.633Z,97400.00
2023-02-02T21:44:36.972Z,97403.59
2023-02-02T21:47:13.004Z,97402.91
2023-02-02T21:49:39.801Z,97405.28
2023-02-02T21:52:15.165Z,97401.88
2023-02-02T21:54:42.335Z,97407.13
2023-02-02T21:57:18.270Z,97415.41
2023-02-02T21:59:46.919Z,97423.25
2023-02-02T22:02:38.023Z,97421.50
2023-02-02T22:05:17.911Z,97428.66
2023-02-02T22:07:48.782Z,97430.59
2023-02-02T22:10:36.857Z,97428.38
2023-02-02T22:13:18.110Z,97421.38
2023-02-02T22:15:47.268Z,97432.66
2023-02-02T22:18:19.929Z,97436.19
2023-02-02T22:20:47.930Z,97436.19
2023-02-02T22:23:16.043Z,97444.44
2023-02-02T22:25:42.537Z,97444.56
2023-02-02T22:28:14.759Z,97445.50
2023-02-02T22:30:42.130Z,97443.34
2023-02-02T22:33:10.481Z,97449.75
2023-02-02T22:35:37.391Z,97445.38
2023-02-02T22:38:04.584Z,97441.97
2023-02-02T22:40:31.175Z,97445.25
2023-02-02T22:43:00.365Z,97453.59
2023-02-02T22:45:26.846Z,97460.44
2023-02-02T22:47:53.719Z,97462.31
2023-02-02T22:50:23.243Z,97464.78
2023-02-02T22:52:50.233Z,97471.75
2023-02-02T22:55:16.687Z,97472.63
2023-02-02T22:57:43.149Z,97477.56
2023-02-02T23:00:29.647Z,97483.25
2023-02-02T23:02:56.829Z,97474.75
2023-02-02T23:05:24.695Z,97482.31
2023-02-02T23:07:51.605Z,97482.25
2023-02-02T23:10:20.525Z,97490.41
2023-02-02T23:12:49.082Z,97500.44
2023-02-02T23:15:15.597Z,97505.66
2023-02-02T23:17:42.101Z,97506.59
2023-02-02T23:20:11.839Z,97512.47
2023-02-02T23:22:38.251Z,97513.09
2023-02-02T23:25:04.981Z,97510.41
2023-02-02T23:27:31.512Z,97525.69
2023-02-02T23:29:58.161Z,97528.94
2023-02-02T23:32:24.913Z,97526.22
2023-02-02T23:34:51.323Z,97527.81
2023-02-02T23:37:17.926Z,97521.91
2023-02-02T23:39:44.534Z,97534.53
2023-02-02T23:42:11.282Z,97532.19
2023-02-02T23:44:37.944Z,97544.66
2023-02-02T23:47:04.799Z,97548.16
2023-02-02T23:49:31.813Z,97538.94
2023-02-02T23:51:58.240Z,97541.47
2023-02-02T23:54:24.857Z,97545.59
2023-02-02T23:56:51.534Z,97549.88
2023-02-02T23:59:18.192Z,97554.16
